Time;durP1;ratioP1;P1;durP2;ratioP2;P2;SDS_P1;SDS_P2;PMS_P1;PMS_P2;Temp;Humidity;BMP_temperature;BMP_pressure;BME280_temperature;BME280_humidity;BME280_pressure;Samples;Min_cycle;Max_cycle;Signal;HPM_P1;HPM_P2
2023/06/22 00:00:58;;;;;;;12.40;11.30;;;27.40;57.10;;;;;;5051427;28;20456;-68
2023/06/22 00:03:25;;;;;;;12.73;11.63;;;27.40;57.60;;;;;;5053449;28;20788;-68
2023/06/22 00:05:52;;;;;;;11.37;10.37;;;27.40;57.00;;;;;;5055583;28;20430;-68
2023/06/22 00:08:18;;;;;;;11.90;10.80;;;27.40;57.00;;;;;;5055496;28;20495;-68
2023/06/22 00:10:45;;;;;;;10.93;10.03;;;27.40;57.10;;;;;;5055470;28;20409;-68
2023/06/22 00:13:11;;;;;;;11.30;10.00;;;27.40;57.20;;;;;;5055322;28;20557;-69
2023/06/22 00:15:39;;;;;;;11.80;10.60;;;27.40;57.10;;;;;;5055268;28;20464;-68
2023/06/22 00:18:07;;;;;;;13.97;10.03;;;27.40;57.20;;;;;;5055467;28;20795;-68
2023/06/22 00:20:32;;;;;;;11.03;10.13;;;27.40;57.20;;;;;;5055833;28;20401;-68
2023/06/22 00:22:59;;;;;;;12.23;11.13;;;27.40;57.10;;;;;;5055266;28;20906;-68
2023/06/22 00:25:25;;;;;;;11.80;10.73;;;27.40;57.30;;;;;;5055062;28;20201;-68
2023/06/22 00:27:51;;;;;;;13.30;10.30;;;27.40;57.40;;;;;;5055048;28;20440;-68
2023/06/22 00:30:18;;;;;;;10.90;9.90;;;27.40;57.50;;;;;;5055118;28;20441;-69
2023/06/22 00:32:44;;;;;;;12.23;10.60;;;27.30;57.50;;;;;;5055137;28;20393;-68
2023/06/22 00:35:12;;;;;;;11.07;10.10;;;27.30;57.50;;;;;;5054874;28;20467;-69
2023/06/22 00:37:38;;;;;;;10.97;10.07;;;27.20;57.60;;;;;;5055215;28;20790;-68
2023/06/22 00:40:05;;;;;;;12.20;11.00;;;27.30;57.70;;;;;;5054935;28;20790;-68
2023/06/22 00:42:30;;;;;;;10.60;9.73;;;27.30;57.60;;;;;;5053459;28;20408;-68
2023/06/22 00:44:56;;;;;;;11.53;10.53;;;27.30;57.70;;;;;;5054971;28;20521;-68
2023/06/22 00:47:22;;;;;;;12.53;10.13;;;27.30;57.70;;;;;;5054693;28;20167;-67
2023/06/22 00:49:51;;;;;;;11.70;10.60;;;27.30;57.90;;;;;;5054586;28;20431;-68
2023/06/22 00:52:20;;;;;;;13.13;11.20;;;27.30;57.80;;;;;;5054952;28;20647;-68
2023/06/22 00:54:50;;;;;;;12.43;10.10;;;27.20;57.80;;;;;;5054359;28;20420;-68
2023/06/22 00:57:17;;;;;;;11.87;10.80;;;27.20;57.80;;;;;;5054802;28;20433;-69
2023/06/22 00:59:44;;;;;;;11.03;9.93;;;27.30;57.90;;;;;;5054493;28;20417;-68
2023/06/22 01:02:10;;;;;;;11.57;10.47;;;27.30;57.70;;;;;;5054463;28;20413;-68
2023/06/22 01:04:38;;;;;;;11.37;10.47;;;27.30;57.70;;;;;;5054225;28;20401;-68
2023/06/22 01:07:35;;;;;;;11.50;10.50;;;27.30;57.70;;;;;;5054350;28;20199;-68
2023/06/22 01:10:08;;;;;;;11.80;10.70;;;27.30;57.60;;;;;;5054365;28;20905;-69
2023/06/22 01:12:48;;;;;;;10.93;10.03;;;27.30;57.70;;;;;;5052913;28;20930;-68
2023/06/22 01:15:27;;;;;;;10.07;9.17;;;27.30;57.70;;;;;;5053886;28;20826;-68
2023/06/22 01:17:56;;;;;;;11.77;10.57;;;27.30;57.70;;;;;;5054220;28;20397;-68
2023/06/22 01:20:23;;;;;;;11.17;10.27;;;27.30;57.70;;;;;;5054134;28;20402;-68
2023/06/22 01:23:50;;;;;;;11.43;10.43;;;27.30;57.60;;;;;;5054158;28;20405;-68
2023/06/22 01:26:27;;;;;;;10.43;9.53;;;27.30;57.70;;;;;;5031868;28;20429;-68
2023/06/22 01:28:55;;;;;;;11.07;10.13;;;27.30;57.80;;;;;;5054027;28;20784;-68
2023/06/22 01:31:27;;;;;;;11.47;10.40;;;27.30;57.80;;;;;;5053937;28;20406;-68
2023/06/22 01:33:59;;;;;;;10.93;9.93;;;27.20;58.30;;;;;;5054268;28;20398;-68
2023/06/22 01:36:26;;;;;;;11.20;10.20;;;27.20;57.70;;;;;;5053585;28;20469;-69
2023/06/22 01:38:53;;;;;;;14.20;10.53;;;27.30;57.70;;;;;;5053767;28;20418;-68
2023/06/22 01:41:20;;;;;;;11.67;10.57;;;27.30;57.80;;;;;;5053745;28;20409;-68
2023/06/22 01:43:47;;;;;;;11.40;10.30;;;27.30;57.80;;;;;;5053745;28;20412;-68
2023/06/22 01:46:14;;;;;;;11.03;10.10;;;27.30;57.80;;;;;;5053523;28;20953;-68
2023/06/22 01:48:40;;;;;;;11.10;10.00;;;27.30;57.80;;;;;;5053615;28;20414;-68
2023/06/22 01:51:06;;;;;;;10.70;9.80;;;27.30;57.70;;;;;;5053425;28;20451;-68
2023/06/22 01:53:32;;;;;;;12.00;10.80;;;27.30;57.70;;;;;;5053530;28;20402;-69
2023/06/22 01:55:58;;;;;;;10.53;9.60;;;27.30;57.90;;;;;;5053334;28;20994;-69
2023/06/22 01:58:27;;;;;;;11.70;10.60;;;27.30;57.80;;;;;;5053727;28;20262;-69
2023/06/22 02:01:10;;;;;;;11.40;10.30;;;27.20;57.80;;;;;;5053338;28;20409;-68
2023/06/22 02:03:48;;;;;;;10.63;9.63;;;27.20;57.80;;;;;;5053608;28;20390;-68
2023/06/22 02:06:20;;;;;;;11.30;10.20;;;27.10;57.90;;;;;;5051962;28;20459;-68
2023/06/22 02:08:53;;;;;;;11.70;10.70;;;27.10;57.80;;;;;;5053280;28;20427;-68
2023/06/22 02:11:21;;;;;;;12.87;11.67;;;27.20;57.80;;;;;;5053173;28;20501;-68
2023/06/22 02:13:48;;;;;;;11.77;10.63;;;27.10;57.80;;;;;;5053100;28;20778;-68
2023/06/22 02:16:16;;;;;;;12.60;11.30;;;27.10;57.80;;;;;;5052906;28;20460;-68
2023/06/22 02:18:50;;;;;;;11.23;10.30;;;27.10;57.90;;;;;;5053085;28;20408;-68
2023/06/22 02:21:17;;;;;;;11.93;10.83;;;27.10;57.80;;;;;;5053011;28;20412;-68
2023/06/22 02:23:42;;;;;;;11.57;10.50;;;27.20;57.80;;;;;;5052930;28;20406;-68
2023/06/22 02:26:08;;;;;;;11.80;10.80;;;27.10;57.70;;;;;;5052065;28;20432;-68
2023/06/22 02:28:33;;;;;;;12.00;10.90;;;27.10;57.70;;;;;;5053075;28;20639;-68
2023/06/22 02:30:59;;;;;;;11.60;10.40;;;27.20;57.80;;;;;;5052694;28;20181;-68
2023/06/22 02:33:25;;;;;;;10.80;9.90;;;27.20;57.70;;;;;;5051331;28;20557;-68
2023/06/22 02:35:50;;;;;;;11.37;10.47;;;27.20;57.80;;;;;;5052515;28;20195;-68
2023/06/22 02:38:17;;;;;;;12.03;10.90;;;27.20;57.80;;;;;;5052655;28;20262;-68
2023/06/22 02:40:43;;;;;;;12.77;11.10;;;27.20;57.70;;;;;;5052585;28;20170;-68
2023/06/22 02:43:08;;;;;;;12.30;11.10;;;27.20;57.80;;;;;;5052507;28;20409;-68
2023/06/22 02:45:34;;;;;;;12.87;11.57;;;27.20;57.90;;;;;;5052656;28;20191;-68
2023/06/22 02:47:59;;;;;;;13.37;12.10;;;27.20;57.90;;;;;;5052697;28;20183;-69
2023/06/22 02:50:25;;;;;;;13.17;11.10;;;27.10;57.90;;;;;;5052274;28;20226;-68
2023/06/22 02:52:51;;;;;;;12.70;11.50;;;27.10;58.10;;;;;;5052339;28;20175;-68
2023/06/22 02:55:16;;;;;;;12.50;11.30;;;27.10;58.10;;;;;;5050817;28;20602;-68
2023/06/22 02:57:43;;;;;;;12.93;11.83;;;27.10;58.30;;;;;;5050871;28;20204;-68
2023/06/22 03:00:19;;;;;;;12.90;11.50;;;27.00;58.20;;;;;;5050805;28;20237;-68
2023/06/22 03:02:48;;;;;;;15.33;11.60;;;27.00;58.30;;;;;;5052098;28;20385;-68
2023/06/22 03:05:18;;;;;;;13.50;12.23;;;27.00;58.30;;;;;;5051885;28;20421;-68
2023/06/22 03:07:46;;;;;;;11.80;10.70;;;27.00;58.40;;;;;;5051925;28;20421;-68
2023/06/22 03:10:13;;;;;;;13.00;11.80;;;27.00;58.30;;;;;;5051996;28;20402;-68
2023/06/22 03:12:39;;;;;;;13.57;11.50;;;26.90;58.40;;;;;;5051929;28;20895;-68
2023/06/22 03:15:06;;;;;;;11.10;10.00;;;27.00;58.40;;;;;;5051789;28;20479;-68
2023/06/22 03:17:33;;;;;;;11.73;10.73;;;27.00;58.40;;;;;;5051844;28;20460;-69
2023/06/22 03:19:58;;;;;;;12.30;11.30;;;26.90;58.40;;;;;;5051812;28;20416;-68
2023/06/22 03:22:24;;;;;;;12.47;11.37;;;26.90;58.60;;;;;;5051739;28;20406;-68
2023/06/22 03:24:49;;;;;;;11.80;10.80;;;26.90;58.50;;;;;;5051685;28;20206;-68
2023/06/22 03:27:15;;;;;;;12.47;11.37;;;27.00;58.50;;;;;;5051712;28;20167;-67
2023/06/22 03:29:40;;;;;;;12.90;11.60;;;27.00;58.50;;;;;;5051616;28;20167;-68
2023/06/22 03:32:06;;;;;;;12.60;11.50;;;27.00;58.50;;;;;;5051635;28;20190;-68
2023/06/22 03:34:38;;;;;;;12.37;11.33;;;27.00;58.50;;;;;;5051484;28;20168;-68
2023/06/22 03:37:04;;;;;;;11.70;10.50;;;26.90;58.50;;;;;;5051258;28;20788;-68
2023/06/22 03:39:30;;;;;;;12.00;10.80;;;26.90;58.50;;;;;;5051455;28;20404;-68
2023/06/22 03:41:55;;;;;;;12.67;11.57;;;26.90;58.60;;;;;;5051488;28;20163;-68
2023/06/22 03:44:21;;;;;;;12.80;11.60;;;26.90;58.70;;;;;;5050411;28;20177;-68
2023/06/22 03:46:46;;;;;;;12.27;10.60;;;26.90;58.60;;;;;;5051321;28;20285;-68
2023/06/22 03:49:12;;;;;;;12.13;11.00;;;26.90;58.70;;;;;;5050085;28;20555;-69
2023/06/22 03:51:37;;;;;;;12.27;11.17;;;26.90;58.60;;;;;;5051307;28;20190;-68
2023/06/22 03:54:03;;;;;;;12.60;11.40;;;26.90;58.60;;;;;;5051344;28;20171;-68
2023/06/22 03:56:29;;;;;;;12.90;11.20;;;26.90;58.60;;;;;;5051230;28;20718;-68
2023/06/22 03:58:54;;;;;;;13.07;11.60;;;26.90;58.60;;;;;;5051316;28;20617;-68
2023/06/22 04:01:20;;;;;;;12.33;11.00;;;26.90;58.60;;;;;;5051540;28;20217;-68
2023/06/22 04:03:48;;;;;;;12.10;11.10;;;26.90;58.70;;;;;;5051265;28;20221;-68
2023/06/22 04:06:13;;;;;;;14.00;11.60;;;26.90;58.50;;;;;;5051159;28;20552;-68
2023/06/22 04:08:39;;;;;;;12.37;11.17;;;26.90;58.50;;;;;;5050923;28;20417;-68
2023/06/22 04:11:05;;;;;;;12.90;11.80;;;26.90;58.60;;;;;;5051314;28;20175;-68
2023/06/22 04:13:30;;;;;;;13.33;12.00;;;26.90;58.70;;;;;;5051274;28;20259;-68
2023/06/22 04:15:56;;;;;;;12.60;11.50;;;27.00;58.70;;;;;;5051125;28;20202;-68
2023/06/22 04:18:22;;;;;;;11.93;10.83;;;27.00;58.70;;;;;;5051235;28;20209;-68
2023/06/22 04:20:47;;;;;;;11.17;10.23;;;26.90;59.20;;;;;;5051227;28;20163;-68
2023/06/22 04:23:13;;;;;;;12.47;11.30;;;26.90;58.50;;;;;;5051276;28;20172;-68
2023/06/22 04:25:39;;;;;;;12.43;11.23;;;27.00;58.60;;;;;;5051175;28;20610;-69
2023/06/22 04:28:05;;;;;;;12.47;11.43;;;27.00;58.60;;;;;;5051488;28;20171;-68
2023/06/22 04:30:32;;;;;;;11.93;10.83;;;26.90;58.50;;;;;;5051104;28;20921;-68
2023/06/22 04:32:57;;;;;;;12.40;11.20;;;27.00;58.50;;;;;;5051169;28;20168;-67
2023/06/22 04:35:24;;;;;;;13.97;11.37;;;27.00;58.50;;;;;;5050947;28;20984;-68
2023/06/22 04:37:50;;;;;;;12.50;11.43;;;27.00;58.50;;;;;;5050960;28;20167;-69
2023/06/22 04:40:16;;;;;;;13.17;11.87;;;26.90;58.50;;;;;;5048653;28;20459;-68
2023/06/22 04:42:51;;;;;;;11.93;10.73;;;26.90;58.60;;;;;;5051265;28;20254;-68
2023/06/22 04:45:17;;;;;;;10.90;10.00;;;27.00;58.70;;;;;;5050875;28;20812;-67
2023/06/22 04:47:46;;;;;;;11.07;10.07;;;27.00;58.50;;;;;;5050889;28;20421;-68
2023/06/22 04:50:12;;;;;;;11.60;10.50;;;27.00;58.40;;;;;;5053992;28;20441;-68
2023/06/22 04:52:38;;;;;;;10.93;10.00;;;27.00;58.40;;;;;;5053286;28;20414;-70
2023/06/22 04:55:05;;;;;;;12.20;11.10;;;27.00;58.40;;;;;;5054338;28;20436;-68
2023/06/22 04:57:32;;;;;;;12.47;11.37;;;27.10;58.50;;;;;;5054481;28;20167;-68
2023/06/22 05:00:10;;;;;;;11.97;10.63;;;27.10;58.40;;;;;;5054630;28;20742;-68
2023/06/22 05:02:37;;;;;;;12.83;10.77;;;27.10;58.40;;;;;;5054402;28;20886;-69
2023/06/22 05:05:07;;;;;;;11.70;10.70;;;27.10;58.40;;;;;;5054267;28;20418;-67
2023/06/22 05:07:36;;;;;;;12.27;11.17;;;27.10;58.40;;;;;;5054026;28;20948;-68
2023/06/22 05:10:03;;;;;;;11.97;10.57;;;27.10;58.30;;;;;;5054188;28;20976;-68
2023/06/22 05:12:29;;;;;;;11.83;10.73;;;27.10;58.30;;;;;;5054318;28;20432;-67
2023/06/22 05:14:55;;;;;;;10.87;9.87;;;27.10;58.30;;;;;;5054038;28;20433;-68
2023/06/22 05:17:21;;;;;;;16.33;12.10;;;27.10;58.20;;;;;;5054136;28;20398;-67
2023/06/22 05:19:50;;;;;;;11.10;10.10;;;27.10;58.30;;;;;;5054084;28;20780;-68
2023/06/22 05:22:16;;;;;;;12.53;11.43;;;27.10;58.20;;;;;;5053801;28;20582;-68
2023/06/22 05:24:42;;;;;;;10.90;10.00;;;27.10;58.30;;;;;;5053849;28;20413;-66
2023/06/22 05:27:08;;;;;;;11.13;10.17;;;27.10;58.30;;;;;;5054057;28;20414;-67
2023/06/22 05:29:34;;;;;;;9.57;8.77;;;27.10;58.20;;;;;;5054010;28;20463;-68
2023/06/22 05:31:59;;;;;;;12.77;11.40;;;27.20;58.30;;;;;;5053810;28;20600;-67
2023/06/22 05:34:25;;;;;;;11.20;10.20;;;27.20;58.20;;;;;;5053809;28;20171;-68
2023/06/22 05:36:51;;;;;;;10.33;9.43;;;27.20;58.20;;;;;;5053435;28;20206;-67
2023/06/22 05:39:17;;;;;;;10.77;9.67;;;27.20;58.00;;;;;;5052790;28;20907;-68
2023/06/22 05:41:44;;;;;;;10.80;9.80;;;27.20;58.10;;;;;;5053719;28;20245;-67
2023/06/22 05:44:10;;;;;;;11.80;10.70;;;27.20;58.20;;;;;;5053715;28;20539;-68
2023/06/22 05:46:35;;;;;;;11.70;10.70;;;27.20;58.10;;;;;;5052179;28;20438;-68
2023/06/22 05:49:01;;;;;;;10.20;9.30;;;27.20;58.10;;;;;;5053564;28;20179;-68
2023/06/22 05:51:26;;;;;;;11.60;9.60;;;27.20;58.00;;;;;;5053347;28;20187;-67
2023/06/22 05:53:52;;;;;;;11.17;10.17;;;27.20;58.10;;;;;;5053520;28;20179;-65
2023/06/22 05:56:18;;;;;;;10.83;9.80;;;27.20;57.90;;;;;;5053210;28;20202;-68
2023/06/22 05:58:44;;;;;;;10.20;9.40;;;27.20;58.00;;;;;;5053392;28;20228;-67
2023/06/22 06:01:09;;;;;;;12.80;11.60;;;27.20;57.90;;;;;;5053317;28;20817;-68
2023/06/22 06:03:41;;;;;;;10.50;9.60;;;27.20;58.00;;;;;;5053527;28;20179;-68
2023/06/22 06:06:07;;;;;;;10.37;9.47;;;27.20;58.00;;;;;;5053240;28;20190;-68
2023/06/22 06:08:32;;;;;;;11.03;10.03;;;27.20;58.00;;;;;;5053157;28;20460;-67
2023/06/22 06:10:58;;;;;;;11.63;10.73;;;27.20;58.10;;;;;;5053227;28;20437;-67
2023/06/22 06:13:24;;;;;;;11.53;10.43;;;27.20;58.00;;;;;;5053187;28;20216;-67
2023/06/22 06:15:54;;;;;;;10.63;9.73;;;27.30;58.00;;;;;;5052557;28;20289;-67
2023/06/22 06:18:20;;;;;;;11.30;8.77;;;27.20;58.00;;;;;;5052733;28;20394;-67
2023/06/22 06:20:46;;;;;;;11.53;10.43;;;27.30;58.20;;;;;;5053203;28;20784;-68
2023/06/22 06:23:12;;;;;;;12.33;11.13;;;27.30;58.10;;;;;;5053001;28;20254;-65
2023/06/22 06:25:37;;;;;;;11.07;10.10;;;27.20;58.10;;;;;;5052780;28;20199;-67
2023/06/22 06:28:03;;;;;;;10.23;9.33;;;27.30;58.10;;;;;;5053028;28;20179;-68
2023/06/22 06:30:29;;;;;;;11.63;10.00;;;27.30;58.10;;;;;;5052746;28;20182;-67
2023/06/22 06:32:55;;;;;;;12.53;11.43;;;27.30;58.10;;;;;;5052761;28;20178;-67
2023/06/22 06:35:21;;;;;;;11.50;10.50;;;27.30;58.10;;;;;;5052655;28;20195;-67
2023/06/22 06:37:49;;;;;;;11.07;10.00;;;27.30;58.30;;;;;;5052648;28;20409;-68
2023/06/22 06:40:16;;;;;;;10.93;9.93;;;27.30;58.20;;;;;;5052668;28;20805;-68
2023/06/22 06:42:47;;;;;;;11.90;10.90;;;27.30;58.20;;;;;;5052874;28;20459;-67
2023/06/22 06:45:17;;;;;;;12.20;11.10;;;27.30;58.10;;;;;;5051183;28;20433;-67
2023/06/22 06:47:43;;;;;;;11.27;10.30;;;27.30;58.30;;;;;;5052819;28;20533;-67
2023/06/22 06:50:10;;;;;;;11.40;10.30;;;27.30;58.40;;;;;;5052327;28;21034;-68
2023/06/22 06:52:36;;;;;;;10.97;9.97;;;27.30;58.30;;;;;;5052496;28;20746;-67
2023/06/22 06:55:04;;;;;;;10.70;9.80;;;27.30;58.20;;;;;;5052361;28;20437;-67
2023/06/22 06:57:31;;;;;;;10.13;9.33;;;27.30;58.00;;;;;;5052604;28;20520;-68
2023/06/22 06:59:56;;;;;;;10.70;9.70;;;27.30;58.00;;;;;;5052368;28;20493;-67
2023/06/22 07:02:23;;;;;;;9.70;8.90;;;27.30;58.00;;;;;;5050916;28;20190;-68
2023/06/22 07:04:49;;;;;;;9.80;9.00;;;27.40;58.10;;;;;;5052169;28;20172;-67
2023/06/22 07:07:15;;;;;;;10.90;9.80;;;27.40;58.00;;;;;;5052149;28;20411;-67
2023/06/22 07:09:40;;;;;;;9.33;8.53;;;27.30;57.90;;;;;;5052112;28;20183;-68
2023/06/22 07:12:06;;;;;;;13.07;9.33;;;27.30;57.90;;;;;;5051615;28;20203;-67
2023/06/22 07:14:32;;;;;;;10.10;9.07;;;27.30;57.90;;;;;;5052166;28;20598;-68
2023/06/22 07:16:58;;;;;;;10.10;9.13;;;27.40;58.00;;;;;;5051872;28;20511;-68
2023/06/22 07:19:26;;;;;;;9.90;9.00;;;27.40;58.00;;;;;;5052233;28;20189;-68
2023/06/22 07:21:53;;;;;;;9.80;9.00;;;27.40;57.90;;;;;;5051928;28;20524;-68
2023/06/22 07:24:19;;;;;;;10.30;9.30;;;27.40;57.90;;;;;;5052006;28;20417;-67
2023/06/22 07:26:46;;;;;;;9.50;8.70;;;27.30;57.80;;;;;;5052126;28;20433;-69
2023/06/22 07:29:11;;;;;;;8.80;8.00;;;27.40;57.80;;;;;;5052146;28;20415;-69
2023/06/22 07:31:37;;;;;;;8.43;7.73;;;27.40;57.90;;;;;;5051794;28;20410;-67
2023/06/22 07:34:04;;;;;;;10.13;9.13;;;27.40;57.80;;;;;;5051747;28;20178;-68
2023/06/22 07:36:30;;;;;;;9.87;9.07;;;27.40;57.80;;;;;;5051608;28;20251;-68
2023/06/22 07:38:55;;;;;;;8.67;7.90;;;27.40;57.70;;;;;;5050368;28;20516;-67
2023/06/22 07:41:21;;;;;;;8.77;7.87;;;27.40;57.70;;;;;;5051735;28;20167;-68
2023/06/22 07:43:47;;;;;;;8.43;7.67;;;27.40;57.60;;;;;;5051809;28;20167;-67
2023/06/22 07:46:12;;;;;;;8.57;7.87;;;27.40;57.50;;;;;;5051536;28;20563;-67
2023/06/22 07:48:39;;;;;;;10.97;9.83;;;27.40;57.50;;;;;;5051619;28;20190;-67
2023/06/22 07:51:06;;;;;;;8.70;7.90;;;27.40;57.50;;;;;;5050184;28;20202;-68
2023/06/22 07:53:31;;;;;;;8.37;7.57;;;27.40;57.50;;;;;;5051510;28;20969;-68
2023/06/22 07:55:57;;;;;;;7.60;7.00;;;27.40;57.40;;;;;;5051400;28;20463;-68
2023/06/22 07:58:22;;;;;;;8.70;8.00;;;27.40;57.30;;;;;;5051354;28;20183;-68
2023/06/22 08:00:49;;;;;;;7.70;7.00;;;27.40;57.30;;;;;;5051932;28;20220;-68
2023/06/22 08:03:14;;;;;;;7.97;7.27;;;27.40;57.30;;;;;;5051480;28;20584;-68
2023/06/22 08:05:40;;;;;;;8.23;7.00;;;27.40;57.30;;;;;;5051414;28;20437;-68
2023/06/22 08:08:06;;;;;;;8.60;7.90;;;27.40;57.30;;;;;;5051443;28;20178;-68
2023/06/22 08:10:31;;;;;;;10.30;8.20;;;27.40;57.30;;;;;;5051374;28;20186;-68
2023/06/22 08:12:57;;;;;;;11.10;8.40;;;27.40;57.20;;;;;;5051292;28;20273;-68
2023/06/22 08:15:23;;;;;;;8.70;6.90;;;27.50;57.30;;;;;;5051159;28;20609;-68
2023/06/22 08:17:48;;;;;;;8.50;7.70;;;27.40;57.20;;;;;;5049928;28;20689;-68
2023/06/22 08:20:14;;;;;;;7.80;7.00;;;27.40;57.20;;;;;;5051237;28;20655;-68
2023/06/22 08:22:41;;;;;;;8.20;7.40;;;27.50;57.80;;;;;;5051224;28;20186;-67
2023/06/22 08:25:07;;;;;;;8.27;7.57;;;27.50;57.20;;;;;;5054875;28;20666;-67
2023/06/22 08:27:33;;;;;;;9.60;8.03;;;27.40;57.10;;;;;;5055026;28;20409;-68
2023/06/22 08:29:59;;;;;;;8.90;7.33;;;27.40;57.20;;;;;;5054972;28;20428;-68
2023/06/22 08:32:27;;;;;;;8.53;7.77;;;27.50;57.10;;;;;;5055010;28;20178;-68
2023/06/22 08:34:54;;;;;;;7.70;7.10;;;27.50;57.20;;;;;;5054898;28;20437;-68
2023/06/22 08:37:19;;;;;;;8.83;8.10;;;27.50;57.20;;;;;;5054775;28;20460;-67
2023/06/22 08:39:46;;;;;;;8.13;7.40;;;27.50;57.10;;;;;;5055357;28;20758;-68
2023/06/22 08:42:11;;;;;;;8.87;7.83;;;27.50;57.00;;;;;;5055113;28;20179;-68
2023/06/22 08:44:37;;;;;;;12.83;7.40;;;27.50;57.10;;;;;;5054740;28;20910;-68
2023/06/22 08:47:03;;;;;;;7.73;7.03;;;27.50;57.00;;;;;;5053416;28;20301;-66
2023/06/22 08:49:29;;;;;;;8.87;8.07;;;27.50;56.90;;;;;;5054578;28;20656;-68
2023/06/22 08:51:56;;;;;;;7.80;7.10;;;27.50;56.80;;;;;;5054719;28;20444;-67
2023/06/22 08:54:22;;;;;;;7.83;6.87;;;27.50;56.80;;;;;;5054716;28;20170;-68
2023/06/22 08:56:47;;;;;;;7.53;6.93;;;27.50;56.90;;;;;;5054610;28;20468;-68
2023/06/22 08:59:13;;;;;;;8.10;7.30;;;27.50;56.90;;;;;;5055041;28;20559;-68
2023/06/22 09:01:39;;;;;;;7.40;6.70;;;27.50;56.90;;;;;;5054704;28;20230;-68
2023/06/22 09:04:05;;;;;;;8.30;7.50;;;27.50;56.90;;;;;;5054648;28;20171;-67
2023/06/22 09:06:32;;;;;;;7.73;7.03;;;27.50;56.90;;;;;;5054633;28;20191;-68
2023/06/22 09:08:59;;;;;;;8.40;7.70;;;27.50;56.90;;;;;;5054577;28;20418;-67
2023/06/22 09:11:25;;;;;;;7.10;6.50;;;27.50;56.90;;;;;;5054844;28;20902;-68
2023/06/22 09:13:51;;;;;;;7.97;7.27;;;27.50;56.90;;;;;;5054798;28;20417;-68
2023/06/22 09:16:17;;;;;;;6.97;6.20;;;27.50;56.90;;;;;;5054373;28;20218;-68
2023/06/22 09:18:47;;;;;;;7.37;6.67;;;27.50;56.90;;;;;;5054511;28;20414;-68
2023/06/22 09:21:13;;;;;;;7.37;6.67;;;27.50;56.80;;;;;;5054684;28;20179;-68
2023/06/22 09:23:38;;;;;;;7.97;7.17;;;27.50;56.80;;;;;;5054236;28;20789;-66
2023/06/22 09:26:04;;;;;;;7.33;6.73;;;27.50;57.40;;;;;;5054180;28;20237;-68
2023/06/22 09:28:29;;;;;;;7.50;6.80;;;27.60;56.90;;;;;;5052870;28;20182;-68
2023/06/22 09:30:58;;;;;;;7.40;6.63;;;27.60;56.80;;;;;;5054206;28;20191;-68
2023/06/22 09:33:24;;;;;;;7.03;6.33;;;27.50;56.80;;;;;;5053990;28;20178;-67
2023/06/22 09:35:50;;;;;;;6.87;6.27;;;27.60;56.80;;;;;;5053332;28;20457;-68
2023/06/22 09:38:16;;;;;;;6.97;6.37;;;27.60;56.80;;;;;;5053926;28;20791;-68
2023/06/22 09:40:42;;;;;;;7.20;6.50;;;27.50;56.80;;;;;;5053817;28;20424;-69
2023/06/22 09:43:08;;;;;;;7.33;6.70;;;27.50;56.70;;;;;;5053722;28;20441;-67
2023/06/22 09:45:34;;;;;;;7.77;7.00;;;27.50;56.70;;;;;;5053996;28;20205;-66
2023/06/22 09:47:59;;;;;;;6.40;5.80;;;27.60;56.70;;;;;;5053637;28;20179;-67
2023/06/22 09:50:25;;;;;;;6.27;5.77;;;27.60;56.70;;;;;;5053432;28;20187;-67
2023/06/22 09:52:54;;;;;;;7.43;6.67;;;27.50;56.70;;;;;;5053501;28;20583;-67
2023/06/22 09:55:20;;;;;;;6.03;5.43;;;27.60;56.60;;;;;;5053447;28;20558;-66
2023/06/22 09:57:46;;;;;;;6.90;6.30;;;27.50;56.60;;;;;;5053456;28;20418;-68
2023/06/22 10:00:13;;;;;;;6.57;5.97;;;27.60;56.60;;;;;;5053615;28;20402;-67
2023/06/22 10:02:41;;;;;;;7.10;6.40;;;27.50;56.50;;;;;;5052004;28;20198;-67
2023/06/22 10:05:07;;;;;;;6.47;5.93;;;27.60;56.60;;;;;;5053182;28;20829;-67
2023/06/22 10:07:33;;;;;;;6.60;6.00;;;27.50;56.60;;;;;;5053233;28;20547;-66
2023/06/22 10:09:58;;;;;;;7.23;6.30;;;27.60;56.60;;;;;;5053183;28;20410;-67
2023/06/22 10:12:25;;;;;;;6.37;5.77;;;27.50;56.50;;;;;;5053073;28;20176;-67
2023/06/22 10:14:50;;;;;;;7.53;6.83;;;27.50;56.50;;;;;;5053016;28;20172;-68
2023/06/22 10:17:16;;;;;;;7.67;6.47;;;27.60;56.50;;;;;;5052966;28;20465;-68
2023/06/22 10:19:42;;;;;;;6.90;6.30;;;27.60;56.40;;;;;;5052951;28;20175;-67
2023/06/22 10:22:07;;;;;;;6.27;5.43;;;27.60;56.40;;;;;;5052955;28;20180;-67
2023/06/22 10:24:33;;;;;;;5.90;5.30;;;27.60;56.40;;;;;;5052836;28;20536;-67
2023/06/22 10:26:58;;;;;;;6.57;5.87;;;27.60;56.40;;;;;;5052836;28;20183;-67
2023/06/22 10:29:24;;;;;;;7.10;6.40;;;27.60;56.40;;;;;;5052785;28;20555;-68
2023/06/22 10:31:50;;;;;;;7.00;6.00;;;27.60;56.30;;;;;;5052753;28;20206;-68
2023/06/22 10:34:15;;;;;;;6.73;6.20;;;27.60;56.30;;;;;;5052751;28;20225;-67
2023/06/22 10:36:41;;;;;;;5.73;5.20;;;27.60;56.30;;;;;;5052529;28;20234;-67
2023/06/22 10:39:07;;;;;;;5.83;5.33;;;27.60;56.40;;;;;;5052635;28;20163;-67
2023/06/22 10:41:32;;;;;;;6.07;5.47;;;27.60;56.40;;;;;;5052854;28;20639;-66
2023/06/22 10:43:58;;;;;;;6.77;6.20;;;27.60;56.40;;;;;;5052532;28;20754;-67
2023/06/22 10:46:27;;;;;;;5.43;4.93;;;27.60;56.40;;;;;;5050485;28;20195;-67
2023/06/22 10:48:55;;;;;;;6.33;5.73;;;27.60;56.30;;;;;;5052492;28;20179;-68
2023/06/22 10:51:20;;;;;;;7.20;6.60;;;27.60;56.30;;;;;;5052364;28;20436;-67
2023/06/22 10:53:46;;;;;;;6.93;6.33;;;27.60;56.20;;;;;;5052375;28;20401;-66
2023/06/22 10:56:12;;;;;;;6.07;5.40;;;27.60;56.30;;;;;;5052316;28;20304;-68
2023/06/22 10:58:37;;;;;;;7.37;6.70;;;27.60;56.20;;;;;;5052605;28;20175;-67
2023/06/22 11:01:03;;;;;;;6.60;6.00;;;27.60;56.20;;;;;;5051352;28;20167;-68
2023/06/22 11:03:28;;;;;;;5.97;5.37;;;27.60;56.20;;;;;;5052427;28;20636;-67
2023/06/22 11:05:54;;;;;;;5.80;5.27;;;27.60;56.20;;;;;;5052128;28;20195;-67
2023/06/22 11:08:20;;;;;;;8.10;5.80;;;27.60;56.10;;;;;;5052166;28;20186;-67
2023/06/22 11:10:45;;;;;;;5.67;5.17;;;27.60;56.20;;;;;;5052231;28;20200;-68
2023/06/22 11:13:11;;;;;;;6.37;5.77;;;27.60;56.30;;;;;;5051999;28;20202;-66
2023/06/22 11:15:36;;;;;;;6.13;5.60;;;27.60;56.10;;;;;;5052084;28;20679;-68
2023/06/22 11:18:02;;;;;;;6.17;5.60;;;27.60;56.10;;;;;;5052185;28;20182;-67
2023/06/22 11:20:28;;;;;;;6.50;5.90;;;27.60;56.10;;;;;;5051948;28;20167;-67
2023/06/22 11:22:53;;;;;;;6.27;5.53;;;27.60;56.10;;;;;;5052092;28;20178;-67
2023/06/22 11:25:19;;;;;;;6.17;5.57;;;27.60;56.10;;;;;;5051750;28;20675;-67
2023/06/22 11:27:44;;;;;;;6.40;5.80;;;27.60;56.10;;;;;;5051897;28;20536;-67
2023/06/22 11:30:10;;;;;;;7.50;6.00;;;27.60;56.10;;;;;;5050474;28;20209;-67
2023/06/22 11:32:36;;;;;;;6.60;5.90;;;27.60;56.00;;;;;;5051786;28;20570;-68
2023/06/22 11:35:01;;;;;;;6.07;5.57;;;27.60;56.00;;;;;;5051642;28;20672;-67
2023/06/22 11:37:27;;;;;;;5.70;5.20;;;27.60;56.00;;;;;;5051618;28;20198;-66
2023/06/22 11:39:54;;;;;;;6.17;5.57;;;27.60;55.90;;;;;;5051674;28;20667;-67
2023/06/22 11:42:20;;;;;;;6.50;5.87;;;27.60;56.00;;;;;;5051631;28;20171;-67
2023/06/22 11:44:45;;;;;;;5.60;5.10;;;27.60;56.00;;;;;;5051571;28;20497;-66
2023/06/22 11:47:11;;;;;;;5.90;5.20;;;27.60;56.00;;;;;;5051373;28;20179;-66
2023/06/22 11:49:37;;;;;;;6.43;5.50;;;27.60;56.00;;;;;;5051398;28;20645;-68
2023/06/22 11:52:02;;;;;;;5.90;5.30;;;27.60;56.50;;;;;;5051588;28;20167;-67
2023/06/22 11:54:28;;;;;;;7.60;6.03;;;27.60;56.50;;;;;;5051576;28;20518;-68
2023/06/22 11:56:53;;;;;;;6.50;5.80;;;27.60;55.90;;;;;;5051380;28;20199;-67
2023/06/22 11:59:22;;;;;;;6.63;5.90;;;27.60;55.80;;;;;;5057891;28;20525;-68
2023/06/22 12:01:47;;;;;;;7.00;6.33;;;27.60;55.80;;;;;;5058304;28;20171;-68
2023/06/22 12:04:14;;;;;;;7.73;6.17;;;27.60;55.60;;;;;;5058391;28;20406;-68
2023/06/22 12:06:42;;;;;;;8.13;7.03;;;27.60;55.60;;;;;;5056889;28;20201;-68
2023/06/22 12:09:08;;;;;;;12.73;6.13;;;27.60;55.50;;;;;;5058052;28;20409;-68
2023/06/22 12:11:33;;;;;;;6.83;5.73;;;27.60;55.50;;;;;;5057967;28;20814;-69
2023/06/22 12:14:01;;;;;;;7.17;6.43;;;27.60;55.50;;;;;;5058051;28;20229;-69
2023/06/22 12:16:30;;;;;;;6.50;5.90;;;27.60;55.40;;;;;;5057818;28;20191;-69
2023/06/22 12:18:56;;;;;;;10.00;7.00;;;27.60;55.30;;;;;;5057970;28;20757;-68
2023/06/22 12:21:21;;;;;;;11.07;6.70;;;27.60;55.20;;;;;;5059501;28;20566;-68
2023/06/22 12:23:47;;;;;;;7.27;6.30;;;27.60;55.10;;;;;;5057207;28;20175;-67
2023/06/22 12:26:12;;;;;;;8.23;6.70;;;27.60;55.10;;;;;;5057986;28;20202;-67
2023/06/22 12:28:38;;;;;;;8.20;6.83;;;27.60;55.10;;;;;;5058000;28;20178;-67
2023/06/22 12:31:03;;;;;;;9.87;5.97;;;27.60;55.10;;;;;;5058236;28;20205;-67
2023/06/22 12:33:30;;;;;;;8.90;5.83;;;27.70;55.10;;;;;;5057906;28;20648;-67